Time;durP1;ratioP1;P1;durP2;ratioP2;P2;SDS_P1;SDS_P2;PMS_P1;PMS_P2;Temp;Humidity;BMP_temperature;BMP_pressure;BME280_temperature;BME280_humidity;BME280_pressure;Samples;Min_cycle;Max_cycle;Signal;HPM_P1;HPM_P2
2023/01/25 00:00:09;;;;;;;26.35;12.73;;;;;;;;;;5098476;28;20035;-83
2023/01/25 00:02:35;;;;;;;22.05;11.63;;;;;;;;;;5116675;28;20476;-84
2023/01/25 00:05:01;;;;;;;19.67;11.48;;;;;;;;;;5097831;28;20043;-84
2023/01/25 00:07:26;;;;;;;22.60;12.05;;;;;;;;;;5116996;28;20031;-84
2023/01/25 00:09:51;;;;;;;19.42;10.80;;;;;;;;;;5117042;28;20608;-83
2023/01/25 00:12:17;;;;;;;18.25;10.60;;;;;;;;;;5117029;28;20476;-84
2023/01/25 00:14:43;;;;;;;19.08;11.23;;;;;;;;;;5117052;28;20035;-83
2023/01/25 00:17:09;;;;;;;20.10;10.85;;;;;;;;;;5117688;28;20059;-83
2023/01/25 00:19:34;;;;;;;19.02;11.45;;;;;;;;;;5125299;27;20651;-84
2023/01/25 00:22:00;;;;;;;18.90;10.95;;;;;;;;;;5097946;28;20028;-84
2023/01/25 00:24:25;;;;;;;18.23;10.75;;;;;;;;;;5114413;28;20445;-85
2023/01/25 00:26:51;;;;;;;19.83;11.20;;;;;;;;;;5098982;28;20188;-84
2023/01/25 00:29:16;;;;;;;18.88;10.52;;;;;;;;;;5101522;28;20035;-83
2023/01/25 00:32:07;;;;;;;18.08;9.70;;;;;;;;;;5101336;28;20039;-84
2023/01/25 00:34:46;;;;;;;17.33;9.82;;;;;;;;;;5118863;28;20503;-82
2023/01/25 00:37:37;;;;;;;18.08;10.02;;;;;;;;;;5119140;28;20442;-83
2023/01/25 00:40:04;;;;;;;16.05;9.25;;;;;;;;;;5083522;28;20130;-83
2023/01/25 00:42:30;;;;;;;18.60;10.27;;;;;;;;;;5118406;28;20028;-83
2023/01/25 00:44:55;;;;;;;18.50;10.27;;;;;;;;;;5099581;28;20127;-85
2023/01/25 00:47:21;;;;;;;18.02;10.35;;;;;;;;;;5082677;28;20032;-83
2023/01/25 00:49:46;;;;;;;19.20;10.77;;;;;;;;;;5116644;28;20043;-85
2023/01/25 00:52:13;;;;;;;20.77;11.20;;;;;;;;;;5098293;28;20181;-83
2023/01/25 00:54:39;;;;;;;19.98;10.65;;;;;;;;;;5081177;28;20038;-83
2023/01/25 00:57:05;;;;;;;22.23;11.48;;;;;;;;;;5098110;28;20111;-84
2023/01/25 00:59:33;;;;;;;19.45;10.55;;;;;;;;;;5098435;28;20042;-83
2023/01/25 01:01:58;;;;;;;19.33;10.68;;;;;;;;;;5081548;28;20031;-82
2023/01/25 01:04:24;;;;;;;17.80;10.45;;;;;;;;;;5127630;28;20035;-83
2023/01/25 01:06:52;;;;;;;19.40;10.75;;;;;;;;;;5100599;28;20035;-83
2023/01/25 01:09:19;;;;;;;19.60;10.10;;;;;;;;;;5101502;28;20031;-84
2023/01/25 01:11:45;;;;;;;15.70;10.02;;;;;;;;;;5101290;28;20039;-83
2023/01/25 01:14:12;;;;;;;17.13;10.32;;;;;;;;;;5101648;28;20027;-83
2023/01/25 01:16:37;;;;;;;16.15;9.68;;;;;;;;;;5101105;28;20035;-84
2023/01/25 01:19:03;;;;;;;18.38;10.50;;;;;;;;;;5101641;28;20026;-83
2023/01/25 01:21:28;;;;;;;18.90;10.73;;;;;;;;;;5101456;28;20039;-84
2023/01/25 01:23:56;;;;;;;18.33;10.98;;;;;;;;;;5092624;28;20040;-84
2023/01/25 01:26:21;;;;;;;18.02;10.80;;;;;;;;;;5101296;28;20035;-83
2023/01/25 01:28:47;;;;;;;28.80;14.30;;;;;;;;;;5102476;28;20115;-83
2023/01/25 01:31:19;;;;;;;22.98;12.02;;;;;;;;;;5101777;28;20051;-84
2023/01/25 01:33:54;;;;;;;19.88;10.82;;;;;;;;;;5086447;28;20035;-82
2023/01/25 01:36:22;;;;;;;22.70;11.07;;;;;;;;;;5101326;28;20027;-85
2023/01/25 01:38:48;;;;;;;19.77;11.18;;;;;;;;;;5083505;28;20080;-84
2023/01/25 01:41:14;;;;;;;21.25;11.15;;;;;;;;;;5083947;28;20044;-84
2023/01/25 01:43:40;;;;;;;18.75;10.68;;;;;;;;;;5100652;28;20047;-83
2023/01/25 01:46:14;;;;;;;19.70;10.93;;;;;;;;;;5084064;28;20040;-83
2023/01/25 01:48:46;;;;;;;16.73;10.30;;;;;;;;;;5117717;28;20055;-84
2023/01/25 01:51:22;;;;;;;18.52;10.35;;;;;;;;;;5118266;28;20032;-83
2023/01/25 01:53:53;;;;;;;20.85;10.90;;;;;;;;;;5099992;28;20092;-85
2023/01/25 01:56:26;;;;;;;17.10;9.73;;;;;;;;;;5099961;28;20391;-85
2023/01/25 01:58:54;;;;;;;17.70;9.40;;;;;;;;;;5082927;28;20084;-85
2023/01/25 02:01:20;;;;;;;17.33;9.63;;;;;;;;;;5117583;28;20141;-85
2023/01/25 02:03:47;;;;;;;17.42;9.18;;;;;;;;;;5096639;28;20491;-84
2023/01/25 02:06:19;;;;;;;15.55;8.70;;;;;;;;;;5114451;28;20035;-83
2023/01/25 02:08:45;;;;;;;14.40;9.23;;;;;;;;;;5079060;28;20057;-84
2023/01/25 02:11:11;;;;;;;23.95;13.75;;;;;;;;;;5095619;28;20110;-83
2023/01/25 02:13:37;;;;;;;16.23;10.07;;;;;;;;;;5095431;28;20480;-82
2023/01/25 02:16:03;;;;;;;17.83;9.80;;;;;;;;;;5087245;28;20024;-84
2023/01/25 02:18:30;;;;;;;15.98;9.48;;;;;;;;;;5085610;28;20046;-83
2023/01/25 02:20:57;;;;;;;15.90;9.52;;;;;;;;;;5118529;28;20080;-86
2023/01/25 02:23:52;;;;;;;16.30;9.63;;;;;;;;;;5082116;28;20028;-85
2023/01/25 02:26:19;;;;;;;14.38;8.57;;;;;;;;;;5075855;28;20110;-85
2023/01/25 02:28:49;;;;;;;16.45;9.20;;;;;;;;;;5107911;28;20047;-85
2023/01/25 02:31:15;;;;;;;15.13;8.55;;;;;;;;;;5099515;28;20024;-84
2023/01/25 02:33:41;;;;;;;16.70;8.98;;;;;;;;;;5099093;28;20023;-83
2023/01/25 02:36:20;;;;;;;16.88;8.65;;;;;;;;;;5082046;28;20062;-85
2023/01/25 02:38:52;;;;;;;14.60;8.95;;;;;;;;;;5082063;28;20040;-86
2023/01/25 02:41:41;;;;;;;12.73;8.07;;;;;;;;;;5097949;28;20106;-84
2023/01/25 02:44:12;;;;;;;14.00;8.38;;;;;;;;;;5097072;28;20036;-84
2023/01/25 02:46:40;;;;;;;12.50;7.55;;;;;;;;;;5097773;28;20036;-83
2023/01/25 02:49:08;;;;;;;11.73;7.47;;;;;;;;;;5096796;28;20026;-85
2023/01/25 02:51:36;;;;;;;12.75;8.00;;;;;;;;;;5114974;28;20028;-85
2023/01/25 02:54:04;;;;;;;16.25;9.02;;;;;;;;;;5114862;28;20058;-85
2023/01/25 02:56:30;;;;;;;13.85;8.05;;;;;;;;;;5096795;28;20035;-84
2023/01/25 02:58:56;;;;;;;14.77;8.77;;;;;;;;;;5096258;28;20037;-84
2023/01/25 03:01:22;;;;;;;15.27;8.40;;;;;;;;;;5095701;28;20019;-85
2023/01/25 03:03:47;;;;;;;15.30;8.80;;;;;;;;;;5095537;28;20509;-85
2023/01/25 03:06:13;;;;;;;14.77;8.23;;;;;;;;;;5095392;28;20034;-84
2023/01/25 03:08:41;;;;;;;17.88;8.32;;;;;;;;;;5078743;28;20027;-84
2023/01/25 03:11:07;;;;;;;13.70;8.10;;;;;;;;;;5095114;28;20031;-84
2023/01/25 03:13:34;;;;;;;14.93;8.15;;;;;;;;;;5078709;28;20031;-83
2023/01/25 03:16:04;;;;;;;13.02;7.60;;;;;;;;;;5078169;28;20027;-83
2023/01/25 03:18:30;;;;;;;14.13;8.32;;;;;;;;;;5095045;28;20027;-85
2023/01/25 03:21:02;;;;;;;12.80;8.15;;;;;;;;;;5094938;28;20076;-84
2023/01/25 03:23:28;;;;;;;13.70;8.38;;;;;;;;;;5094785;28;20077;-82
2023/01/25 03:25:54;;;;;;;14.00;8.15;;;;;;;;;;5094337;28;20053;-83
2023/01/25 03:28:19;;;;;;;15.07;8.07;;;;;;;;;;5094481;28;20035;-84
2023/01/25 03:30:52;;;;;;;16.02;8.27;;;;;;;;;;5108712;28;20035;-84
2023/01/25 03:33:17;;;;;;;12.60;7.35;;;;;;;;;;5104477;28;20495;-83
2023/01/25 03:35:43;;;;;;;12.30;6.90;;;;;;;;;;5078941;28;20073;-84
2023/01/25 03:38:09;;;;;;;14.77;7.43;;;;;;;;;;5096044;28;20027;-84
2023/01/25 03:40:34;;;;;;;11.20;6.60;;;;;;;;;;5114534;28;20092;-83
2023/01/25 03:43:00;;;;;;;11.13;6.35;;;;;;;;;;5095928;28;20027;-84
2023/01/25 03:45:25;;;;;;;10.60;6.90;;;;;;;;;;5079604;28;20035;-84
2023/01/25 03:47:51;;;;;;;10.95;7.00;;;;;;;;;;5096241;28;20031;-84
2023/01/25 03:50:17;;;;;;;11.93;7.47;;;;;;;;;;5079172;28;20120;-84
2023/01/25 03:52:47;;;;;;;11.73;7.03;;;;;;;;;;5096108;28;20055;-84
2023/01/25 03:55:12;;;;;;;12.55;7.13;;;;;;;;;;5095725;28;20082;-84
2023/01/25 03:57:40;;;;;;;14.90;7.68;;;;;;;;;;5079414;28;20027;-84
2023/01/25 04:00:07;;;;;;;12.55;7.53;;;;;;;;;;5095820;28;20084;-83
2023/01/25 04:02:40;;;;;;;13.23;7.80;;;;;;;;;;5100429;28;20040;-84
2023/01/25 04:05:07;;;;;;;11.05;7.43;;;;;;;;;;5099847;28;20702;-86
2023/01/25 04:07:33;;;;;;;13.30;7.68;;;;;;;;;;5101705;28;20036;-85
2023/01/25 04:09:58;;;;;;;14.25;7.55;;;;;;;;;;5083442;28;20081;-84
2023/01/25 04:12:24;;;;;;;12.57;7.25;;;;;;;;;;5100160;28;20495;-83
2023/01/25 04:14:50;;;;;;;12.18;7.43;;;;;;;;;;5099653;28;20039;-85
2023/01/25 04:17:21;;;;;;;13.05;7.70;;;;;;;;;;5083764;28;20059;-86
2023/01/25 04:19:50;;;;;;;12.40;7.05;;;;;;;;;;5117766;28;20031;-83
2023/01/25 04:22:18;;;;;;;10.55;6.60;;;;;;;;;;5083453;28;20100;-84
2023/01/25 04:24:44;;;;;;;8.32;5.13;;;;;;;;;;5099609;28;20059;-83
2023/01/25 04:27:09;;;;;;;10.60;6.10;;;;;;;;;;5100022;28;20042;-83
2023/01/25 04:29:43;;;;;;;12.10;6.82;;;;;;;;;;5100195;28;20069;-85
2023/01/25 04:32:15;;;;;;;9.20;5.55;;;;;;;;;;5083832;28;20451;-84
2023/01/25 04:34:41;;;;;;;9.38;5.68;;;;;;;;;;5100151;28;20040;-82
2023/01/25 04:37:11;;;;;;;10.65;6.10;;;;;;;;;;5108079;28;20395;-83
2023/01/25 04:39:46;;;;;;;11.40;6.28;;;;;;;;;;5097274;28;20034;-83
2023/01/25 04:42:12;;;;;;;10.00;6.68;;;;;;;;;;5098885;23;20115;-82
2023/01/25 04:44:37;;;;;;;11.60;6.50;;;;;;;;;;5105647;28;20031;-82
2023/01/25 04:47:03;;;;;;;10.85;6.40;;;;;;;;;;5107562;28;20043;-82
2023/01/25 04:49:28;;;;;;;9.98;5.95;;;;;;;;;;5107256;28;20031;-83
2023/01/25 04:51:54;;;;;;;10.45;6.30;;;;;;;;;;5095259;28;20527;-83
2023/01/25 04:54:20;;;;;;;10.35;6.20;;;;;;;;;;5086345;28;20044;-82
2023/01/25 04:56:46;;;;;;;10.05;6.35;;;;;;;;;;5086612;28;20032;-82
2023/01/25 04:59:11;;;;;;;10.23;6.28;;;;;;;;;;5087302;28;20063;-82
2023/01/25 05:01:37;;;;;;;9.38;5.82;;;;;;;;;;5086877;28;20024;-82
2023/01/25 05:04:05;;;;;;;9.90;6.18;;;;;;;;;;5087083;28;20024;-81
2023/01/25 05:06:36;;;;;;;11.27;6.28;;;;;;;;;;5087598;28;20055;-82
2023/01/25 05:09:01;;;;;;;9.75;6.30;;;;;;;;;;5086553;28;20058;-82
2023/01/25 05:11:27;;;;;;;11.52;6.32;;;;;;;;;;5086989;28;20043;-82
2023/01/25 05:13:58;;;;;;;11.88;6.72;;;;;;;;;;5087781;28;20024;-81
2023/01/25 05:16:30;;;;;;;11.35;6.65;;;;;;;;;;5086517;28;20043;-82
2023/01/25 05:18:57;;;;;;;10.32;6.50;;;;;;;;;;5086513;28;20070;-82
2023/01/25 05:24:15;;;;;;;9.93;5.50;;;;;;;;;;5086073;28;20126;-82
2023/01/25 05:26:59;;;;;;;11.93;6.35;;;;;;;;;;5085831;28;20036;-82
2023/01/25 05:29:27;;;;;;;10.25;5.68;;;;;;;;;;5069142;28;20119;-82
2023/01/25 05:31:58;;;;;;;11.05;5.97;;;;;;;;;;5112801;28;20411;-82
2023/01/25 05:34:25;;;;;;;11.00;5.97;;;;;;;;;;5084871;28;20032;-82
2023/01/25 05:36:51;;;;;;;9.88;6.00;;;;;;;;;;5086434;28;20077;-81
2023/01/25 05:39:18;;;;;;;8.70;4.93;;;;;;;;;;5085961;28;20050;-81
2023/01/25 05:41:46;;;;;;;8.50;5.00;;;;;;;;;;5083880;28;20496;-81
2023/01/25 05:44:12;;;;;;;7.78;4.90;;;;;;;;;;5084068;28;20573;-81
2023/01/25 05:46:42;;;;;;;10.40;6.28;;;;;;;;;;5085409;28;20050;-81
2023/01/25 05:49:08;;;;;;;11.73;6.75;;;;;;;;;;5085667;28;20039;-81
2023/01/25 05:51:34;;;;;;;12.30;7.28;;;;;;;;;;5085933;28;20028;-81
2023/01/25 05:54:01;;;;;;;9.90;6.47;;;;;;;;;;5085474;28;20043;-80
2023/01/25 05:56:27;;;;;;;12.07;8.20;;;;;;;;;;5086770;28;20461;-80
2023/01/25 05:58:54;;;;;;;10.15;6.22;;;;;;;;;;5069700;28;20024;-81
2023/01/25 06:01:20;;;;;;;10.00;5.95;;;;;;;;;;5086146;28;20510;-82
2023/01/25 06:03:52;;;;;;;8.15;5.07;;;;;;;;;;5086413;28;20047;-82
2023/01/25 06:06:18;;;;;;;9.85;5.50;;;;;;;;;;5085203;28;20073;-82
2023/01/25 06:08:45;;;;;;;10.15;5.47;;;;;;;;;;5085856;28;20036;-81
2023/01/25 06:11:14;;;;;;;8.23;5.07;;;;;;;;;;5071952;28;20036;-82
2023/01/25 06:13:43;;;;;;;8.88;5.18;;;;;;;;;;5062426;28;20092;-82
2023/01/25 06:16:09;;;;;;;9.80;5.93;;;;;;;;;;5065211;28;20551;-81
2023/01/25 06:18:41;;;;;;;12.40;7.15;;;;;;;;;;5079897;28;20076;-81
2023/01/25 06:21:27;;;;;;;14.45;7.97;;;;;;;;;;5038452;28;20067;-82
2023/01/25 06:23:53;;;;;;;11.07;6.65;;;;;;;;;;5080461;28;20485;-81
2023/01/25 06:26:19;;;;;;;11.82;7.05;;;;;;;;;;5064992;28;20028;-81
2023/01/25 06:28:44;;;;;;;12.77;7.35;;;;;;;;;;5083059;28;20032;-81
2023/01/25 06:31:14;;;;;;;20.10;11.20;;;;;;;;;;5082562;28;20043;-81
2023/01/25 06:33:41;;;;;;;15.77;8.43;;;;;;;;;;5064843;28;20036;-81
2023/01/25 06:36:13;;;;;;;14.70;8.30;;;;;;;;;;5064967;28;20040;-82
2023/01/25 06:38:39;;;;;;;12.00;7.32;;;;;;;;;;5067235;28;20084;-82
2023/01/25 06:41:07;;;;;;;12.98;8.13;;;;;;;;;;5083254;28;20036;-82
2023/01/25 06:43:33;;;;;;;15.63;8.38;;;;;;;;;;5082612;28;20024;-80
2023/01/25 06:46:01;;;;;;;12.98;7.25;;;;;;;;;;5064425;28;20860;-81
2023/01/25 06:48:28;;;;;;;16.95;9.23;;;;;;;;;;5096306;28;20526;-81
2023/01/25 06:50:58;;;;;;;15.93;9.13;;;;;;;;;;5101009;28;20437;-81
2023/01/25 06:53:26;;;;;;;11.27;6.60;;;;;;;;;;5087248;28;20042;-82
2023/01/25 06:56:05;;;;;;;13.38;7.97;;;;;;;;;;5066295;28;20031;-81
2023/01/25 06:58:32;;;;;;;11.75;7.38;;;;;;;;;;5102250;28;20042;-82
2023/01/25 07:01:01;;;;;;;13.82;7.57;;;;;;;;;;5083186;28;20096;-81
2023/01/25 07:03:28;;;;;;;14.95;9.90;;;;;;;;;;5080247;28;20054;-81
2023/01/25 07:06:02;;;;;;;16.60;10.45;;;;;;;;;;5099080;28;20032;-82
2023/01/25 07:08:28;;;;;;;12.35;8.32;;;;;;;;;;5098496;28;20032;-81
2023/01/25 07:10:59;;;;;;;12.80;7.60;;;;;;;;;;5080091;28;20082;-82
2023/01/25 07:13:25;;;;;;;12.15;7.43;;;;;;;;;;5099626;28;19998;-81
2023/01/25 07:15:56;;;;;;;11.32;7.68;;;;;;;;;;5097976;28;20067;-81
2023/01/25 07:18:22;;;;;;;15.07;7.38;;;;;;;;;;5099401;28;20048;-80
2023/01/25 07:20:49;;;;;;;13.20;6.85;;;;;;;;;;5101136;28;20064;-80
2023/01/25 07:23:15;;;;;;;15.45;7.03;;;;;;;;;;5100947;28;20032;-81
2023/01/25 07:25:49;;;;;;;13.52;7.10;;;;;;;;;;5097410;28;20062;-82
2023/01/25 07:28:16;;;;;;;13.27;6.95;;;;;;;;;;5101345;28;20036;-82
2023/01/25 07:30:42;;;;;;;9.55;5.85;;;;;;;;;;5102625;28;20040;-82
2023/01/25 07:33:11;;;;;;;9.48;4.95;;;;;;;;;;5084184;28;20044;-81
2023/01/25 07:35:36;;;;;;;9.00;5.30;;;;;;;;;;5098677;28;20047;-82
2023/01/25 07:38:03;;;;;;;12.32;7.30;;;;;;;;;;5085959;28;20032;-82
2023/01/25 07:40:28;;;;;;;12.75;7.55;;;;;;;;;;5104664;28;20119;-83
2023/01/25 07:42:54;;;;;;;9.77;6.38;;;;;;;;;;5103406;28;20071;-82
2023/01/25 07:45:28;;;;;;;9.27;5.45;;;;;;;;;;5084492;28;20028;-82
2023/01/25 07:47:58;;;;;;;10.93;5.80;;;;;;;;;;5103882;28;20032;-84
2023/01/25 07:50:27;;;;;;;10.68;5.60;;;;;;;;;;5103518;28;20036;-84
2023/01/25 07:52:53;;;;;;;8.98;5.40;;;;;;;;;;5100493;28;20040;-85
2023/01/25 07:55:19;;;;;;;9.65;5.80;;;;;;;;;;5082321;28;20413;-85
2023/01/25 07:57:44;;;;;;;10.90;5.13;;;;;;;;;;5101443;28;20061;-83
2023/01/25 08:00:12;;;;;;;10.70;6.38;;;;;;;;;;5082692;28;20027;-83
2023/01/25 08:02:39;;;;;;;11.93;6.75;;;;;;;;;;5064312;28;20043;-83
2023/01/25 08:05:05;;;;;;;15.50;7.50;;;;;;;;;;5084011;28;20039;-85
2023/01/25 08:07:31;;;;;;;13.23;7.18;;;;;;;;;;5100586;28;20032;-84
2023/01/25 08:09:56;;;;;;;10.88;6.75;;;;;;;;;;5099652;28;20089;-84
2023/01/25 08:12:22;;;;;;;11.73;7.03;;;;;;;;;;5080399;28;20040;-83
2023/01/25 08:14:49;;;;;;;10.20;6.15;;;;;;;;;;5097756;28;20107;-83
2023/01/25 08:17:14;;;;;;;9.82;5.95;;;;;;;;;;5098568;28;20066;-83
2023/01/25 08:19:40;;;;;;;11.00;6.60;;;;;;;;;;5098234;28;20028;-83
2023/01/25 08:22:06;;;;;;;10.88;6.03;;;;;;;;;;5080101;28;20028;-84
2023/01/25 08:24:32;;;;;;;10.95;5.95;;;;;;;;;;5080030;28;20094;-83
2023/01/25 08:26:57;;;;;;;31.17;16.15;;;;;;;;;;5079805;28;20075;-84
2023/01/25 08:29:23;;;;;;;24.23;14.13;;;;;;;;;;5097451;28;20507;-83
2023/01/25 08:31:49;;;;;;;29.75;16.10;;;;;;;;;;5079545;28;20098;-83
2023/01/25 08:34:14;;;;;;;23.35;11.82;;;;;;;;;;5097841;28;20486;-84
2023/01/25 08:36:40;;;;;;;116.50;46.70;;;;;;;;;;5098151;28;20032;-84
2023/01/25 08:39:07;;;;;;;19.00;11.07;;;;;;;;;;5097704;28;20119;-83
2023/01/25 08:41:33;;;;;;;13.93;8.13;;;;;;;;;;5098464;28;20034;-84
2023/01/25 08:43:59;;;;;;;12.55;7.28;;;;;;;;;;5079235;28;20028;-83
2023/01/25 08:46:29;;;;;;;13.57;7.80;;;;;;;;;;5097000;28;20400;-83
2023/01/25 08:48:55;;;;;;;27.38;14.68;;;;;;;;;;5078608;28;20036;-84
2023/01/25 08:51:22;;;;;;;13.98;7.85;;;;;;;;;;5079014;28;20036;-84
2023/01/25 08:53:47;;;;;;;16.90;8.80;;;;;;;;;;5097048;28;20089;-84
2023/01/25 08:56:15;;;;;;;102.30;41.78;;;;;;;;;;5097292;28;20040;-84
2023/01/25 08:58:44;;;;;;;54.53;25.50;;;;;;;;;;5097822;28;20304;-84
2023/01/25 09:01:11;;;;;;;16.92;8.10;;;;;;;;;;5097358;28;20054;-84
2023/01/25 09:03:39;;;;;;;91.35;33.45;;;;;;;;;;5097596;28;20097;-84
2023/01/25 09:06:06;;;;;;;25.20;11.77;;;;;;;;;;5096805;28;20442;-85
2023/01/25 09:08:32;;;;;;;10.07;5.95;;;;;;;;;;5096765;28;20039;-84
2023/01/25 09:11:07;;;;;;;135.63;49.38;;;;;;;;;;5078955;28;20039;-84
2023/01/25 09:13:33;;;;;;;71.05;28.45;;;;;;;;;;5097189;28;20070;-84
2023/01/25 09:16:02;;;;;;;31.00;14.18;;;;;;;;;;5096597;28;20040;-83
2023/01/25 09:18:28;;;;;;;9.63;5.82;;;;;;;;;;5096868;28;20119;-84
2023/01/25 09:20:54;;;;;;;8.70;5.38;;;;;;;;;;5078453;28;20024;-84
2023/01/25 09:23:22;;;;;;;9.23;5.30;;;;;;;;;;5062332;28;20031;-85
2023/01/25 09:25:57;;;;;;;7.50;4.63;;;;;;;;;;5078687;28;20040;-85
2023/01/25 09:28:24;;;;;;;8.40;4.72;;;;;;;;;;5096904;28;20032;-84
2023/01/25 09:30:54;;;;;;;73.40;29.00;;;;;;;;;;5078226;28;20032;-84
2023/01/25 09:33:28;;;;;;;17.27;9.05;;;;;;;;;;5077859;28;20036;-85
2023/01/25 09:35:53;;;;;;;9.68;5.75;;;;;;;;;;5096668;28;20109;-84
2023/01/25 09:38:20;;;;;;;10.63;5.78;;;;;;;;;;5062211;28;20028;-84
2023/01/25 09:41:12;;;;;;;10.45;5.90;;;;;;;;;;5097135;28;20501;-84
2023/01/25 09:43:43;;;;;;;9.80;6.00;;;;;;;;;;5078416;28;20143;-83
2023/01/25 09:46:38;;;;;;;9.10;5.53;;;;;;;;;;5096347;28;20036;-83
2023/01/25 09:49:39;;;;;;;9.65;5.00;;;;;;;;;;5096102;28;20080;-85
2023/01/25 09:52:23;;;;;;;10.32;6.32;;;;;;;;;;5095817;28;20090;-85
2023/01/25 09:54:49;;;;;;;8.82;5.20;;;;;;;;;;5077396;28;20028;-84
2023/01/25 09:57:34;;;;;;;9.43;5.75;;;;;;;;;;5096128;28;20050;-85
2023/01/25 10:00:05;;;;;;;23.00;13.95;;;;;;;;;;5095083;28;20031;-84
2023/01/25 10:02:41;;;;;;;14.55;6.78;;;;;;;;;;5096202;28;20032;-85
2023/01/25 10:05:35;;;;;;;12.48;6.43;;;;;;;;;;5077486;28;20499;-84
2023/01/25 10:08:10;;;;;;;17.02;9.88;;;;;;;;;;5093556;28;20618;-84
2023/01/25 10:10:41;;;;;;;25.70;15.70;;;;;;;;;;5077646;28;20507;-84
2023/01/25 10:13:20;;;;;;;16.05;10.02;;;;;;;;;;5095481;28;20081;-85
2023/01/25 10:15:54;;;;;;;12.38;7.10;;;;;;;;;;5095244;28;20032;-84
2023/01/25 10:18:32;;;;;;;10.93;6.85;;;;;;;;;;5095923;28;20032;-84
2023/01/25 10:21:02;;;;;;;30.02;16.52;;;;;;;;;;5077338;28;20028;-84
2023/01/25 10:23:41;;;;;;;11.88;6.85;;;;;;;;;;5095525;28;20046;-85
2023/01/25 10:26:18;;;;;;;17.88;8.15;;;;;;;;;;5077132;28;20024;-84
2023/01/25 10:28:44;;;;;;;31.50;13.60;;;;;;;;;;5096104;28;20032;-84
2023/01/25 10:31:27;;;;;;;21.15;10.75;;;;;;;;;;5095522;28;20492;-85
2023/01/25 10:33:55;;;;;;;15.05;7.25;;;;;;;;;;5095007;28;20036;-84
2023/01/25 10:36:26;;;;;;;9.63;6.10;;;;;;;;;;5077186;28;20048;-84
2023/01/25 10:38:58;;;;;;;9.65;5.70;;;;;;;;;;5077479;28;20046;-84
2023/01/25 10:41:37;;;;;;;10.20;6.07;;;;;;;;;;5104526;22;20043;-88
2023/01/25 10:44:22;;;;;;;10.15;5.47;;;;;;;;;;5096013;28;20103;-87
2023/01/25 10:46:51;;;;;;;10.55;6.03;;;;;;;;;;5113559;28;20032;-87
2023/01/25 10:49:27;;;;;;;9.65;5.80;;;;;;;;;;5077915;28;20031;-88
2023/01/25 10:51:53;;;;;;;9.68;5.45;;;;;;;;;;5098720;28;20051;-83
2023/01/25 10:54:21;;;;;;;10.30;6.15;;;;;;;;;;5121762;28;20042;-88
2023/01/25 10:56:47;;;;;;;8.98;5.22;;;;;;;;;;5078994;28;20036;-86
2023/01/25 10:59:23;;;;;;;11.73;6.38;;;;;;;;;;5114180;28;20484;-88
2023/01/25 11:01:49;;;;;;;12.63;6.93;;;;;;;;;;5123625;28;20617;-89
2023/01/25 11:04:34;;;;;;;13.73;6.45;;;;;;;;;;5115339;28;20050;-88
2023/01/25 11:07:04;;;;;;;11.52;6.15;;;;;;;;;;5100328;28;20028;-87
2023/01/25 11:09:30;;;;;;;13.05;6.90;;;;;;;;;;5102506;28;20039;-86
2023/01/25 11:11:57;;;;;;;14.52;7.00;;;;;;;;;;5099843;28;20042;-86
2023/01/25 11:14:26;;;;;;;11.95;6.93;;;;;;;;;;5099910;28;20034;-88
2023/01/25 11:16:52;;;;;;;13.57;7.57;;;;;;;;;;5119127;28;20039;-86
2023/01/25 11:19:23;;;;;;;13.25;6.32;;;;;;;;;;5099488;28;20092;-88
2023/01/25 11:21:58;;;;;;;15.63;8.07;;;;;;;;;;5098241;28;20031;-89
2023/01/25 11:24:34;;;;;;;19.15;10.77;;;;;;;;;;5099591;28;20036;-88
2023/01/25 11:27:26;;;;;;;25.30;13.48;;;;;;;;;;5117319;28;20042;-87
2023/01/25 11:30:04;;;;;;;20.83;10.43;;;;;;;;;;5098740;28;20035;-88
2023/01/25 11:32:30;;;;;;;15.45;8.35;;;;;;;;;;5117688;28;20050;-88
2023/01/25 11:34:57;;;;;;;26.25;13.55;;;;;;;;;;5118427;28;20035;-88
2023/01/25 11:37:25;;;;;;;17.90;9.85;;;;;;;;;;5119099;28;20152;-88
2023/01/25 11:40:14;;;;;;;13.70;7.28;;;;;;;;;;5116900;28;20028;-87
2023/01/25 11:43:04;;;;;;;13.00;7.28;;;;;;;;;;5099055;28;20031;-87
2023/01/25 11:46:05;;;;;;;11.77;6.93;;;;;;;;;;5081788;28;20056;-86
2023/01/25 11:49:03;;;;;;;12.35;6.38;;;;;;;;;;5033729;28;20084;-86
2023/01/25 11:51:43;;;;;;;17.23;9.52;;;;;;;;;;5098202;28;20040;-89
2023/01/25 11:54:42;;;;;;;8.50;5.05;;;;;;;;;;5098315;28;20050;-88
2023/01/25 11:57:13;;;;;;;8.95;5.60;;;;;;;;;;5098131;28;20042;-86
2023/01/25 12:00:02;;;;;;;10.68;5.72;;;;;;;;;;5116609;28;20038;-85
2023/01/25 12:03:13;;;;;;;9.50;5.53;;;;;;;;;;5113802;28;20123;-86
2023/01/25 12:05:52;;;;;;;25.73;14.98;;;;;;;;;;5076311;28;20031;-84
2023/01/25 12:09:01;;;;;;;12.85;7.25;;;;;;;;;;5119104;28;20407;-86
2023/01/25 12:11:51;;;;;;;8.80;5.38;;;;;;;;;;5098883;28;20032;-89
2023/01/25 12:14:17;;;;;;;13.18;7.47;;;;;;;;;;5117119;28;20494;-87
2023/01/25 12:16:51;;;;;;;13.02;6.93;;;;;;;;;;5117685;28;20035;-87
2023/01/25 12:19:27;;;;;;;15.35;8.70;;;;;;;;;;5098715;28;20027;-88
2023/01/25 12:21:59;;;;;;;17.05;8.55;;;;;;;;;;5098080;28;20104;-87
2023/01/25 12:24:40;;;;;;;12.50;6.53;;;;;;;;;;5119208;28;20036;-87
2023/01/25 12:27:17;;;;;;;8.40;5.40;;;;;;;;;;5101062;28;20038;-87
2023/01/25 12:29:59;;;;;;;9.15;5.32;;;;;;;;;;5102451;28;20046;-87
2023/01/25 12:32:32;;;;;;;17.00;9.60;;;;;;;;;;5101698;28;20521;-89
2023/01/25 12:35:31;;;;;;;17.05;10.00;;;;;;;;;;5102840;28;20039;-88
2023/01/25 12:38:03;;;;;;;13.15;7.35;;;;;;;;;;5119256;28;20644;-90
2023/01/25 12:40:41;;;;;;;10.43;6.20;;;;;;;;;;5100875;28;20035;-88
2023/01/25 12:43:14;;;;;;;15.23;8.88;;;;;;;;;;5100797;28;20032;-88
2023/01/25 12:45:42;;;;;;;18.05;10.68;;;;;;;;;;5119751;28;20050;-89
2023/01/25 12:48:25;;;;;;;10.02;6.07;;;;;;;;;;5119994;28;20036;-88
2023/01/25 12:50:55;;;;;;;10.65;6.90;;;;;;;;;;5084817;28;20034;-86
2023/01/25 12:53:26;;;;;;;13.35;7.28;;;;;;;;;;5119347;28;20058;-90
2023/01/25 12:55:54;;;;;;;14.18;8.57;;;;;;;;;;5119222;28;20032;-89
2023/01/25 12:58:46;;;;;;;17.40;8.75;;;;;;;;;;5119865;28;20036;-89
2023/01/25 13:01:41;;;;;;;16.42;7.45;;;;;;;;;;5101109;28;20043;-88
2023/01/25 13:04:29;;;;;;;12.63;6.72;;;;;;;;;;5095019;28;20134;-90
2023/01/25 13:06:58;;;;;;;18.98;8.52;;;;;;;;;;5117016;28;20031;-85
2023/01/25 13:09:38;;;;;;;17.20;8.05;;;;;;;;;;5118227;28;20043;-85
2023/01/25 13:12:04;;;;;;;19.23;9.10;;;;;;;;;;5121225;28;20032;-87
2023/01/25 13:14:35;;;;;;;42.97;16.13;;;;;;;;;;5096923;28;20076;-88
2023/01/25 13:17:28;;;;;;;22.42;10.05;;;;;;;;;;5096758;28;20031;-87
2023/01/25 13:19:53;;;;;;;30.17;12.82;;;;;;;;;;5110189;28;20118;-88
2023/01/25 13:22:45;;;;;;;20.02;10.25;;;;;;;;;;5100622;28;20507;-88
2023/01/25 13:25:16;;;;;;;18.33;9.75;;;;;;;;;;5114663;28;20114;-87
2023/01/25 13:27:42;;;;;;;17.52;9.65;;;;;;;;;;5118832;28;20106;-86
2023/01/25 13:30:26;;;;;;;15.40;7.85;;;;;;;;;;5118133;28;20051;-87
2023/01/25 13:32:54;;;;;;;10.75;6.63;;;;;;;;;;5117916;28;20032;-87
2023/01/25 13:35:27;;;;;;;13.82;7.90;;;;;;;;;;5118574;28;20073;-88
2023/01/25 13:38:16;;;;;;;13.35;7.70;;;;;;;;;;5083412;28;20036;-87
2023/01/25 13:40:42;;;;;;;17.90;8.23;;;;;;;;;;5088610;28;20046;-89
2023/01/25 13:43:10;;;;;;;17.30;8.32;;;;;;;;;;5099713;28;20032;-88
2023/01/25 13:45:38;;;;;;;17.42;8.90;;;;;;;;;;5117693;28;20604;-89
2023/01/25 13:48:03;;;;;;;17.95;8.90;;;;;;;;;;5118622;28;20106;-89
2023/01/25 13:50:33;;;;;;;14.98;8.65;;;;;;;;;;5100633;28;20525;-88
2023/01/25 13:53:01;;;;;;;16.30;8.98;;;;;;;;;;5114640;28;20015;-84
2023/01/25 13:55:28;;;;;;;34.78;15.43;;;;;;;;;;5102246;28;20076;-86
2023/01/25 13:58:16;;;;;;;29.17;12.45;;;;;;;;;;5100408;28;20417;-87
2023/01/25 14:01:05;;;;;;;36.38;15.30;;;;;;;;;;5118504;28;20031;-88
2023/01/25 14:03:35;;;;;;;31.67;13.25;;;;;;;;;;5099244;28;20034;-87
2023/01/25 14:06:03;;;;;;;26.98;13.02;;;;;;;;;;5116368;28;20035;-88
2023/01/25 14:08:29;;;;;;;26.13;11.48;;;;;;;;;;5116279;28;20023;-87
2023/01/25 14:10:55;;;;;;;19.08;10.15;;;;;;;;;;5116123;28;20119;-86
2023/01/25 14:13:21;;;;;;;19.63;9.90;;;;;;;;;;5100078;28;20047;-85
2023/01/25 14:16:03;;;;;;;21.25;10.65;;;;;;;;;;5124401;28;20035;-87
2023/01/25 14:18:34;;;;;;;18.23;9.35;;;;;;;;;;5096934;28;20032;-87
2023/01/25 14:21:18;;;;;;;20.23;9.80;;;;;;;;;;5096655;28;20035;-88
2023/01/25 14:23:44;;;;;;;21.75;10.60;;;;;;;;;;5096798;28;20479;-88
2023/01/25 14:26:22;;;;;;;20.17;9.38;;;;;;;;;;5113908;28;20061;-86
2023/01/25 14:28:53;;;;;;;34.95;14.07;;;;;;;;;;5114153;28;20030;-87
2023/01/25 14:31:24;;;;;;;41.28;16.95;;;;;;;;;;5099352;28;20027;-85
2023/01/25 14:33:53;;;;;;;32.22;15.30;;;;;;;;;;5122506;28;20122;-87
2023/01/25 14:36:20;;;;;;;22.17;10.20;;;;;;;;;;5097734;28;20036;-88
2023/01/25 14:38:46;;;;;;;19.80;10.80;;;;;;;;;;5116302;28;20427;-88
2023/01/25 14:41:12;;;;;;;20.48;10.52;;;;;;;;;;5097843;28;20043;-88
2023/01/25 14:43:42;;;;;;;22.45;10.80;;;;;;;;;;5097988;28;20059;-88
2023/01/25 14:46:17;;;;;;;21.13;10.52;;;;;;;;;;5097346;28;20110;-88
2023/01/25 14:48:43;;;;;;;19.92;10.18;;;;;;;;;;5115331;28;20031;-88
2023/01/25 14:51:26;;;;;;;22.27;11.68;;;;;;;;;;5115041;28;20038;-88